Haines, Oregon
Current Conditions -  °F | °C
As of 7:53 AM on Wednesday 22 Oct 2014 (Local Time) from KBKE Reporting Station
Light Rain Light Rain  
Wind Chill: 40°   Ceiling: Unl
Heat Index: 45°   Visibility: 10mi
Dew Point: 35°   Wind: 10mph
Humidity: 68%   Direction: 90°E
Pressure: 30.03"   Gusts: NA
Location:  44.91°N, 117.94°W
Report Text: KBKE 221453Z AUTO 09009KT 10SM -RA SCT070 07/02 A3003 RMK AO2 SLP180 P0000 60000 T00720017 55000
Loading
Personal Weather Stations






























Interactive Weather Map
Tropical Storm Tracking
New forecast layout! Learn more

10-Day Weather Forecast

Advertisements
Track Severe Weather on mobile